Time;durP1;ratioP1;P1;durP2;ratioP2;P2;SDS_P1;SDS_P2;PMS_P1;PMS_P2;Temp;Humidity;BMP_temperature;BMP_pressure;BME280_temperature;BME280_humidity;BME280_pressure;Samples;Min_cycle;Max_cycle;Signal;HPM_P1;HPM_P2
2022/07/06 00:00:04;;;;;;;6.90;2.28;;;13.70;99.90;;;;;;5091057;28;20052;-82
2022/07/06 00:02:30;;;;;;;9.02;2.42;;;13.80;99.90;;;;;;5091068;28;20040;-82
2022/07/06 00:04:57;;;;;;;6.18;1.55;;;13.70;99.90;;;;;;5074321;28;20047;-82
2022/07/06 00:07:23;;;;;;;6.63;1.67;;;13.70;99.90;;;;;;5090728;28;20044;-82
2022/07/06 00:09:49;;;;;;;7.35;2.00;;;13.60;99.90;;;;;;5074148;28;20050;-82
2022/07/06 00:12:15;;;;;;;5.82;1.85;;;13.60;99.90;;;;;;5074205;28;20470;-82
2022/07/06 00:14:41;;;;;;;5.85;1.70;;;13.50;99.90;;;;;;5090888;28;20626;-82
2022/07/06 00:17:07;;;;;;;8.82;2.35;;;13.50;99.90;;;;;;5091041;28;20072;-83
2022/07/06 00:19:32;;;;;;;9.00;2.75;;;13.50;99.90;;;;;;5090875;28;20409;-82
2022/07/06 00:21:58;;;;;;;6.03;1.67;;;13.60;99.90;;;;;;5091015;28;20054;-83
2022/07/06 00:24:24;;;;;;;6.47;1.92;;;13.60;99.90;;;;;;5090900;28;20044;-82
2022/07/06 00:26:49;;;;;;;8.23;2.33;;;13.50;99.90;;;;;;5073976;28;20048;-82
2022/07/06 00:29:15;;;;;;;8.98;1.75;;;13.60;99.90;;;;;;5090759;28;20028;-83
2022/07/06 00:31:40;;;;;;;7.63;2.30;;;13.50;99.90;;;;;;5090986;28;20589;-82
2022/07/06 00:34:06;;;;;;;7.60;2.10;;;13.60;99.90;;;;;;5074134;28;20130;-83
2022/07/06 00:36:32;;;;;;;6.90;1.67;;;13.60;99.90;;;;;;5091072;28;20028;-83
2022/07/06 00:38:57;;;;;;;7.25;1.58;;;13.60;99.90;;;;;;5073777;28;20565;-82
2022/07/06 00:41:23;;;;;;;6.05;1.65;;;13.60;99.90;;;;;;5090858;28;20088;-83
2022/07/06 00:43:55;;;;;;;10.00;2.50;;;13.60;99.90;;;;;;5090377;28;20512;-82
2022/07/06 00:46:25;;;;;;;8.55;1.50;;;13.70;99.90;;;;;;5090749;28;20374;-82
2022/07/06 00:48:50;;;;;;;7.70;1.98;;;13.70;99.90;;;;;;5090642;28;20040;-83
2022/07/06 00:51:16;;;;;;;6.53;2.30;;;13.80;99.90;;;;;;5090531;28;20032;-82
2022/07/06 00:53:42;;;;;;;8.80;1.73;;;13.80;99.90;;;;;;5073891;28;20032;-83
2022/07/06 00:56:09;;;;;;;3.83;1.52;;;13.80;99.90;;;;;;5073970;28;20048;-83
2022/07/06 00:58:36;;;;;;;7.40;2.63;;;13.80;99.90;;;;;;5073649;28;20073;-82
2022/07/06 01:01:01;;;;;;;5.53;1.70;;;13.90;99.90;;;;;;5073493;28;20036;-82
2022/07/06 01:03:27;;;;;;;7.90;2.30;;;13.90;99.90;;;;;;5073765;28;20093;-83
2022/07/06 01:05:52;;;;;;;8.30;2.00;;;13.90;99.90;;;;;;5090421;28;20036;-83
2022/07/06 01:08:18;;;;;;;6.90;1.80;;;13.90;99.90;;;;;;5090440;28;20039;-82
2022/07/06 01:10:44;;;;;;;10.43;2.28;;;13.90;99.90;;;;;;5090188;28;20035;-82
2022/07/06 01:13:10;;;;;;;11.68;1.75;;;13.90;99.90;;;;;;5091366;28;20040;-82
2022/07/06 01:15:35;;;;;;;8.98;2.15;;;14.00;99.90;;;;;;5090453;28;20040;-82
2022/07/06 01:18:02;;;;;;;9.50;2.30;;;14.00;99.90;;;;;;5092315;28;20061;-82
2022/07/06 01:20:29;;;;;;;6.75;1.58;;;14.00;99.90;;;;;;5094151;28;20044;-82
2022/07/06 01:22:57;;;;;;;9.88;2.30;;;14.00;99.90;;;;;;5077345;28;20035;-82
2022/07/06 01:25:23;;;;;;;7.50;2.03;;;14.00;99.90;;;;;;5077418;28;20089;-82
2022/07/06 01:27:49;;;;;;;7.28;1.70;;;14.00;99.90;;;;;;5094187;28;20036;-82
2022/07/06 01:30:18;;;;;;;7.80;2.33;;;14.00;99.90;;;;;;5077118;28;20043;-82
2022/07/06 01:32:44;;;;;;;7.13;2.40;;;13.90;99.90;;;;;;5094213;28;20043;-82
2022/07/06 01:35:13;;;;;;;8.27;1.95;;;14.00;99.90;;;;;;5094123;28;20047;-82
2022/07/06 01:37:38;;;;;;;6.90;2.10;;;13.90;99.90;;;;;;5077457;28;20399;-82
2022/07/06 01:40:07;;;;;;;7.45;1.70;;;13.90;99.90;;;;;;5093685;28;20541;-82
2022/07/06 01:42:33;;;;;;;9.32;2.40;;;13.90;99.90;;;;;;5077353;28;20040;-83
2022/07/06 01:44:59;;;;;;;8.63;2.00;;;13.90;99.90;;;;;;5093927;28;20044;-82
2022/07/06 01:47:24;;;;;;;7.35;1.83;;;14.00;99.90;;;;;;5094109;28;20028;-82
2022/07/06 01:49:50;;;;;;;5.15;1.40;;;13.90;99.90;;;;;;5093673;28;20481;-82
2022/07/06 01:52:16;;;;;;;7.13;2.20;;;13.90;99.90;;;;;;5076794;28;20048;-83
2022/07/06 01:54:42;;;;;;;7.22;2.25;;;13.90;99.90;;;;;;5093657;28;20035;-83
2022/07/06 01:57:08;;;;;;;8.52;2.72;;;13.90;99.90;;;;;;5093814;28;20097;-83
2022/07/06 01:59:33;;;;;;;7.15;2.72;;;13.90;99.90;;;;;;5076866;28;20036;-83
2022/07/06 02:01:59;;;;;;;8.88;2.47;;;13.90;99.90;;;;;;5076727;28;20485;-83
2022/07/06 02:04:24;;;;;;;8.80;2.90;;;13.90;99.90;;;;;;5093567;28;20039;-83
2022/07/06 02:06:50;;;;;;;6.15;1.85;;;14.00;99.90;;;;;;5093546;28;20036;-83
2022/07/06 02:09:16;;;;;;;9.68;3.00;;;13.90;99.90;;;;;;5093373;28;20596;-83
2022/07/06 02:11:42;;;;;;;8.55;2.65;;;13.90;99.90;;;;;;5093778;28;20044;-82
2022/07/06 02:14:08;;;;;;;6.75;1.95;;;14.00;99.90;;;;;;5093293;28;20061;-83
2022/07/06 02:16:33;;;;;;;7.38;2.50;;;13.90;99.90;;;;;;5076533;28;20440;-82
2022/07/06 02:18:59;;;;;;;7.53;1.95;;;13.90;99.90;;;;;;5093269;28;20047;-82
2022/07/06 02:21:25;;;;;;;7.70;2.80;;;13.90;99.90;;;;;;5093078;28;20044;-83
2022/07/06 02:23:50;;;;;;;6.68;2.28;;;14.00;99.90;;;;;;5076250;28;20043;-83
2022/07/06 02:26:16;;;;;;;7.55;2.90;;;14.00;99.90;;;;;;5093105;28;20036;-82
2022/07/06 02:28:41;;;;;;;5.55;2.10;;;14.00;99.90;;;;;;5075791;28;20173;-82
2022/07/06 02:31:07;;;;;;;9.43;2.78;;;14.00;99.90;;;;;;5092522;28;20071;-82
2022/07/06 02:33:33;;;;;;;8.95;2.40;;;14.00;99.90;;;;;;5093059;28;20043;-83
2022/07/06 02:35:59;;;;;;;8.90;2.80;;;14.00;99.90;;;;;;5076470;28;20489;-82
2022/07/06 02:38:24;;;;;;;8.48;2.20;;;14.00;99.90;;;;;;5092833;28;20548;-83
2022/07/06 02:40:50;;;;;;;8.30;2.60;;;13.90;99.90;;;;;;5075765;28;20040;-83
2022/07/06 02:43:15;;;;;;;6.75;1.90;;;13.90;99.90;;;;;;5092673;28;20051;-83
2022/07/06 02:45:41;;;;;;;7.80;2.80;;;13.90;99.90;;;;;;5093060;28;20127;-83
2022/07/06 02:48:07;;;;;;;8.32;2.10;;;13.90;99.90;;;;;;5076004;28;20036;-82
2022/07/06 02:50:32;;;;;;;6.70;2.33;;;13.90;99.90;;;;;;5092700;28;20040;-82
2022/07/06 02:52:58;;;;;;;10.50;2.38;;;13.90;99.90;;;;;;5092532;28;20047;-83
2022/07/06 02:55:24;;;;;;;6.93;2.05;;;14.00;99.90;;;;;;5075750;28;20040;-82
2022/07/06 02:57:49;;;;;;;6.75;2.08;;;14.00;99.90;;;;;;5076062;28;20082;-82
2022/07/06 03:00:16;;;;;;;8.73;2.85;;;14.00;99.90;;;;;;5092274;28;20126;-82
2022/07/06 03:02:42;;;;;;;8.85;2.97;;;14.00;99.90;;;;;;5075679;28;20072;-82
2022/07/06 03:05:08;;;;;;;7.93;2.60;;;14.00;99.90;;;;;;5092355;28;20516;-82
2022/07/06 03:07:33;;;;;;;7.10;2.58;;;14.00;99.90;;;;;;5092350;28;20032;-82
2022/07/06 03:09:59;;;;;;;5.70;1.80;;;14.00;99.90;;;;;;5075222;28;20405;-82
2022/07/06 03:12:24;;;;;;;7.55;1.88;;;14.00;99.90;;;;;;5075725;28;20040;-82
2022/07/06 03:14:50;;;;;;;8.32;2.80;;;13.90;99.90;;;;;;5075358;28;20047;-82
2022/07/06 03:17:15;;;;;;;7.50;2.80;;;13.90;99.90;;;;;;5075402;28;20032;-82
2022/07/06 03:19:41;;;;;;;7.57;1.92;;;14.00;99.90;;;;;;5091970;28;20081;-82
2022/07/06 03:22:07;;;;;;;7.60;2.63;;;13.90;99.90;;;;;;5091918;28;20059;-82
2022/07/06 03:24:32;;;;;;;8.13;3.13;;;13.90;99.90;;;;;;5092090;28;20040;-83
2022/07/06 03:26:58;;;;;;;6.03;2.10;;;13.90;99.90;;;;;;5091939;28;20048;-82
2022/07/06 03:29:23;;;;;;;7.63;1.92;;;13.90;99.90;;;;;;5074894;28;20090;-83
2022/07/06 03:31:49;;;;;;;8.77;2.80;;;13.80;99.90;;;;;;5092076;28;20031;-82
2022/07/06 03:34:15;;;;;;;7.97;3.08;;;13.80;99.90;;;;;;5091834;28;20036;-83
2022/07/06 03:36:40;;;;;;;7.40;2.92;;;13.80;99.90;;;;;;5075138;28;20079;-83
2022/07/06 03:39:06;;;;;;;6.03;1.83;;;13.80;99.90;;;;;;5091614;28;20054;-82
2022/07/06 03:41:32;;;;;;;8.88;3.20;;;13.80;99.90;;;;;;5074909;28;20040;-83
2022/07/06 03:43:58;;;;;;;7.88;2.70;;;13.80;99.90;;;;;;5074756;28;20042;-82
2022/07/06 03:46:23;;;;;;;9.20;2.53;;;13.80;99.90;;;;;;5091633;28;20497;-82
2022/07/06 03:48:49;;;;;;;8.68;3.03;;;13.80;99.90;;;;;;5091884;28;20032;-83
2022/07/06 03:51:14;;;;;;;8.77;2.67;;;13.80;99.90;;;;;;5074324;28;20046;-82
2022/07/06 03:53:40;;;;;;;6.43;1.95;;;13.80;99.90;;;;;;5074528;28;20484;-82
2022/07/06 03:58:49;;;;;;;6.93;2.08;;;13.70;99.90;;;;;;5091483;28;20075;-82
2022/07/06 04:01:15;;;;;;;7.00;2.70;;;13.70;99.90;;;;;;5091096;28;20071;-82
2022/07/06 04:03:41;;;;;;;6.70;1.80;;;13.80;99.90;;;;;;5091269;28;20375;-82
2022/07/06 04:06:06;;;;;;;7.90;1.90;;;13.80;99.90;;;;;;5074152;28;20077;-82
2022/07/06 04:08:32;;;;;;;7.40;2.03;;;13.80;99.90;;;;;;5091330;28;20066;-82
2022/07/06 04:10:57;;;;;;;10.15;2.92;;;13.80;99.90;;;;;;5090944;28;20131;-82
2022/07/06 04:13:25;;;;;;;9.82;2.10;;;13.90;99.90;;;;;;5074252;28;20072;-82
2022/07/06 04:15:51;;;;;;;8.65;2.50;;;13.90;99.90;;;;;;5091093;28;20065;-82
2022/07/06 04:18:16;;;;;;;6.85;2.03;;;13.90;99.90;;;;;;5074421;28;20040;-83
2022/07/06 04:20:42;;;;;;;5.90;1.98;;;14.00;99.90;;;;;;5090647;28;20032;-83
2022/07/06 04:23:08;;;;;;;7.88;2.65;;;14.00;99.90;;;;;;5091207;28;20039;-83
2022/07/06 04:25:34;;;;;;;8.20;2.40;;;14.10;99.90;;;;;;5090948;28;20634;-83
2022/07/06 04:27:59;;;;;;;5.35;1.60;;;14.10;99.90;;;;;;5090870;28;20036;-83
2022/07/06 04:30:25;;;;;;;8.52;2.20;;;14.10;99.90;;;;;;5073881;28;20043;-83
2022/07/06 04:32:51;;;;;;;8.68;2.97;;;14.10;99.90;;;;;;5073957;28;20058;-83
2022/07/06 04:35:16;;;;;;;7.85;2.00;;;14.10;99.90;;;;;;5073996;28;20067;-82
2022/07/06 04:37:42;;;;;;;7.35;2.00;;;14.10;99.90;;;;;;5091147;28;20101;-82
2022/07/06 04:40:08;;;;;;;8.15;2.53;;;14.10;99.90;;;;;;5073584;28;20486;-82
2022/07/06 04:42:33;;;;;;;6.03;2.35;;;14.10;99.90;;;;;;5073839;28;20485;-83
2022/07/06 04:44:59;;;;;;;6.88;2.53;;;14.20;99.90;;;;;;5073831;28;20115;-83
2022/07/06 04:47:25;;;;;;;7.40;2.08;;;14.20;99.90;;;;;;5073955;28;20058;-82
2022/07/06 04:49:50;;;;;;;8.90;2.80;;;14.20;99.90;;;;;;5073695;28;20435;-83
2022/07/06 04:52:16;;;;;;;7.28;2.90;;;14.20;99.90;;;;;;5073247;28;20731;-83
2022/07/06 04:54:41;;;;;;;7.90;2.55;;;14.20;99.90;;;;;;5090618;28;20067;-83
2022/07/06 04:57:07;;;;;;;7.82;2.38;;;14.30;99.90;;;;;;5090567;28;20036;-82
2022/07/06 04:59:32;;;;;;;7.70;3.05;;;14.20;99.90;;;;;;5090342;28;20036;-82
2022/07/06 05:01:58;;;;;;;7.38;2.13;;;14.30;99.90;;;;;;5090384;28;20036;-83
2022/07/06 05:04:24;;;;;;;9.52;2.80;;;14.30;99.90;;;;;;5090546;28;20064;-82
2022/07/06 05:06:50;;;;;;;8.20;2.88;;;14.30;99.90;;;;;;5073585;28;20048;-82
2022/07/06 05:09:15;;;;;;;8.07;2.35;;;14.40;99.90;;;;;;5073304;28;20032;-82
2022/07/06 05:11:41;;;;;;;6.95;1.98;;;14.40;99.90;;;;;;5073683;28;20450;-83
2022/07/06 05:14:07;;;;;;;7.97;2.15;;;14.40;99.90;;;;;;5090575;28;20032;-82
2022/07/06 05:16:33;;;;;;;6.90;2.00;;;14.50;99.90;;;;;;5090392;28;20032;-83
2022/07/06 05:18:58;;;;;;;7.35;1.98;;;14.50;99.90;;;;;;5073149;28;20084;-83
2022/07/06 05:21:24;;;;;;;7.47;2.35;;;14.60;99.90;;;;;;5090470;28;20040;-83
2022/07/06 05:23:50;;;;;;;8.45;2.65;;;14.60;99.90;;;;;;5090328;28;20497;-83
2022/07/06 05:26:16;;;;;;;8.90;2.60;;;14.60;99.90;;;;;;5073444;28;20043;-83
2022/07/06 05:28:41;;;;;;;7.10;1.90;;;14.70;99.90;;;;;;5090246;28;20028;-83
2022/07/06 05:31:07;;;;;;;6.15;2.10;;;14.70;99.90;;;;;;5090284;28;20036;-83
2022/07/06 05:33:32;;;;;;;7.93;1.85;;;14.80;99.90;;;;;;5089957;28;20482;-83
2022/07/06 05:35:58;;;;;;;9.02;2.30;;;14.80;99.90;;;;;;5090192;28;20040;-83
2022/07/06 05:38:24;;;;;;;6.95;1.90;;;14.90;99.90;;;;;;5073326;28;20036;-83
2022/07/06 05:40:50;;;;;;;7.15;1.80;;;14.90;99.90;;;;;;5089867;28;20089;-83
2022/07/06 05:43:16;;;;;;;6.40;1.75;;;14.90;99.90;;;;;;5090130;28;20040;-83
2022/07/06 05:45:41;;;;;;;8.02;2.10;;;15.00;99.90;;;;;;5073258;28;20489;-83
2022/07/06 05:50:51;;;;;;;7.82;1.60;;;15.10;99.90;;;;;;5089815;28;20040;-83
2022/07/06 05:53:16;;;;;;;5.22;1.58;;;15.10;99.90;;;;;;5073312;28;20036;-83
2022/07/06 05:55:42;;;;;;;7.10;1.40;;;15.20;99.90;;;;;;5073255;28;20512;-83
2022/07/06 05:58:08;;;;;;;7.30;1.95;;;15.20;99.90;;;;;;5090063;28;20123;-84
2022/07/06 06:00:34;;;;;;;9.70;1.63;;;15.30;99.90;;;;;;5089531;28;20042;-84
2022/07/06 06:02:59;;;;;;;7.38;1.40;;;15.40;99.90;;;;;;5090028;28;20126;-82
2022/07/06 06:05:26;;;;;;;9.20;1.90;;;15.50;99.90;;;;;;5086524;28;20044;-82
2022/07/06 06:07:52;;;;;;;6.05;1.40;;;15.60;99.90;;;;;;5093776;28;20036;-83
2022/07/06 06:10:19;;;;;;;7.05;1.45;;;15.70;99.90;;;;;;5093058;28;20065;-84
2022/07/06 06:12:45;;;;;;;6.13;1.30;;;15.70;99.90;;;;;;5076691;28;20040;-84
2022/07/06 06:15:12;;;;;;;6.15;1.05;;;15.70;99.90;;;;;;5093427;28;20036;-83
2022/07/06 06:17:38;;;;;;;7.00;1.20;;;15.70;99.90;;;;;;5076513;28;20119;-83
2022/07/06 06:20:06;;;;;;;7.00;1.52;;;15.70;99.90;;;;;;5093324;28;20079;-83
2022/07/06 06:22:49;;;;;;;5.85;1.10;;;15.70;99.90;;;;;;5076613;28;20039;-84
2022/07/06 06:25:19;;;;;;;5.32;1.00;;;15.70;99.90;;;;;;5093569;28;20106;-84
2022/07/06 06:27:45;;;;;;;7.70;1.50;;;15.70;99.90;;;;;;5093112;28;20061;-84
2022/07/06 06:30:12;;;;;;;7.35;1.15;;;15.80;99.90;;;;;;5093216;28;20032;-84
2022/07/06 06:32:38;;;;;;;6.93;1.08;;;15.90;99.90;;;;;;5093289;28;20040;-84
2022/07/06 06:35:05;;;;;;;11.73;1.35;;;15.90;99.90;;;;;;5076161;28;20036;-84
2022/07/06 06:37:30;;;;;;;5.00;1.17;;;15.90;99.90;;;;;;5076184;28;20048;-84
2022/07/06 06:39:56;;;;;;;8.43;1.80;;;16.00;99.90;;;;;;5092846;28;20133;-84
2022/07/06 06:42:22;;;;;;;8.23;1.20;;;16.00;99.90;;;;;;5092740;28;20032;-84
2022/07/06 06:44:47;;;;;;;6.93;0.93;;;16.00;99.90;;;;;;5092652;28;20028;-84
2022/07/06 06:47:13;;;;;;;6.25;1.25;;;16.00;99.90;;;;;;5076036;28;20032;-84
2022/07/06 06:49:38;;;;;;;7.22;1.40;;;16.00;99.90;;;;;;5092827;28;20040;-84
2022/07/06 06:52:04;;;;;;;7.18;1.17;;;16.00;99.90;;;;;;5075772;28;20500;-84
2022/07/06 06:54:30;;;;;;;9.30;1.38;;;16.10;99.90;;;;;;5092754;28;20131;-84
2022/07/06 06:56:55;;;;;;;10.55;1.50;;;16.20;99.90;;;;;;5092776;28;20083;-84
2022/07/06 06:59:21;;;;;;;8.75;1.40;;;16.20;99.90;;;;;;5075775;28;20043;-84
2022/07/06 07:01:47;;;;;;;6.20;1.10;;;16.30;99.90;;;;;;5092531;28;20040;-84
2022/07/06 07:04:12;;;;;;;5.95;1.20;;;16.30;99.90;;;;;;5075529;28;20123;-84
2022/07/06 07:06:38;;;;;;;5.18;1.02;;;16.30;99.90;;;;;;5075404;28;20063;-84
2022/07/06 07:09:04;;;;;;;5.70;1.20;;;16.40;99.90;;;;;;5092169;28;20043;-84
2022/07/06 07:11:30;;;;;;;9.23;1.65;;;16.50;99.90;;;;;;5075477;28;20039;-83
2022/07/06 07:13:56;;;;;;;6.13;1.20;;;16.60;99.90;;;;;;5075414;28;20040;-84
2022/07/06 07:16:24;;;;;;;5.85;1.30;;;16.60;99.90;;;;;;5075051;28;20047;-84
2022/07/06 07:18:50;;;;;;;8.23;1.15;;;16.70;99.90;;;;;;5075388;28;20047;-84
2022/07/06 07:21:15;;;;;;;94.65;6.60;;;16.80;99.90;;;;;;5091988;28;20044;-84
2022/07/06 07:23:41;;;;;;;6.68;1.50;;;16.80;99.90;;;;;;5092389;28;20042;-84
2022/07/06 07:26:07;;;;;;;7.07;1.58;;;16.80;99.90;;;;;;5091844;28;20516;-84
2022/07/06 07:28:32;;;;;;;5.18;1.10;;;16.70;99.90;;;;;;5075210;28;20123;-84
2022/07/06 07:30:58;;;;;;;7.32;1.40;;;16.80;99.90;;;;;;5091657;28;20032;-84
2022/07/06 07:33:23;;;;;;;8.60;1.20;;;16.80;99.90;;;;;;5091895;28;20048;-84
2022/07/06 07:35:49;;;;;;;6.50;1.10;;;16.90;99.90;;;;;;5093365;28;20111;-84
2022/07/06 07:38:14;;;;;;;17.52;1.80;;;16.90;99.90;;;;;;5074883;28;20048;-84
2022/07/06 07:40:40;;;;;;;5.15;1.20;;;17.00;99.90;;;;;;5091434;28;20051;-84
2022/07/06 07:43:05;;;;;;;6.45;1.20;;;16.90;99.90;;;;;;5091487;28;20043;-84
2022/07/06 07:45:31;;;;;;;6.00;1.00;;;16.90;99.90;;;;;;5091334;28;20056;-84
2022/07/06 07:47:57;;;;;;;5.68;1.15;;;17.00;99.90;;;;;;5091660;28;20036;-84
2022/07/06 07:50:22;;;;;;;8.43;1.13;;;17.00;99.90;;;;;;5091636;28;20067;-83
2022/07/06 07:52:48;;;;;;;6.60;1.15;;;17.10;99.90;;;;;;5091550;28;20541;-83
2022/07/06 07:55:13;;;;;;;5.70;0.95;;;17.20;99.90;;;;;;5091360;28;20092;-84
2022/07/06 07:57:39;;;;;;;9.63;1.40;;;17.10;99.90;;;;;;5093067;28;20036;-84
2022/07/06 08:00:05;;;;;;;9.60;1.35;;;17.20;99.90;;;;;;5092310;28;20127;-84
2022/07/06 08:02:31;;;;;;;7.53;1.55;;;17.30;99.90;;;;;;5091668;28;20511;-84
2022/07/06 08:04:57;;;;;;;7.55;1.15;;;17.40;99.90;;;;;;5091489;28;20035;-84
2022/07/06 08:07:22;;;;;;;6.10;1.10;;;17.40;99.90;;;;;;5091217;28;20513;-84
2022/07/06 08:09:48;;;;;;;5.47;1.10;;;17.50;99.90;;;;;;5090700;28;20067;-84
2022/07/06 08:12:13;;;;;;;7.70;1.73;;;17.50;99.90;;;;;;5091107;28;20082;-84
2022/07/06 08:14:39;;;;;;;6.88;1.15;;;17.60;99.90;;;;;;5091012;28;20202;-84
2022/07/06 08:17:05;;;;;;;7.00;1.38;;;17.70;99.90;;;;;;5074123;28;20043;-84
2022/07/06 08:19:30;;;;;;;5.47;1.00;;;17.70;99.90;;;;;;5090588;28;20081;-84
2022/07/06 08:21:57;;;;;;;5.10;1.00;;;17.80;99.90;;;;;;5090933;28;20051;-84
2022/07/06 08:24:22;;;;;;;6.95;1.30;;;17.90;99.90;;;;;;5073434;28;20054;-84
2022/07/06 08:26:48;;;;;;;4.72;1.00;;;18.00;99.90;;;;;;5089607;28;20416;-84
2022/07/06 08:29:13;;;;;;;6.45;1.10;;;18.10;99.90;;;;;;5089694;28;20043;-83
2022/07/06 08:31:39;;;;;;;6.00;1.08;;;18.20;99.90;;;;;;5091261;28;20501;-84
2022/07/06 08:34:05;;;;;;;7.35;1.33;;;18.30;99.90;;;;;;5090674;28;20516;-84
2022/07/06 08:36:30;;;;;;;13.38;1.63;;;18.30;99.90;;;;;;5090761;28;20044;-84
2022/07/06 08:38:56;;;;;;;5.75;1.20;;;18.30;99.90;;;;;;5090542;28;20126;-84
2022/07/06 08:41:24;;;;;;;5.00;1.20;;;18.30;99.90;;;;;;5090942;28;20051;-84
2022/07/06 08:43:51;;;;;;;5.75;1.30;;;18.20;99.90;;;;;;5090528;28;20073;-84
2022/07/06 08:46:18;;;;;;;16.75;1.73;;;18.20;99.90;;;;;;5073763;28;20047;-84
2022/07/06 08:48:46;;;;;;;8.15;1.20;;;18.20;99.90;;;;;;5090953;28;20044;-84
2022/07/06 08:51:13;;;;;;;4.85;1.00;;;18.10;99.90;;;;;;5073555;28;20044;-84
2022/07/06 08:53:41;;;;;;;6.60;1.13;;;18.00;99.90;;;;;;5090343;28;20409;-84
2022/07/06 08:56:07;;;;;;;7.10;1.20;;;18.00;99.90;;;;;;5074044;28;20047;-84
2022/07/06 08:58:34;;;;;;;3.67;0.90;;;18.00;99.90;;;;;;5073393;28;20047;-84
2022/07/06 09:01:00;;;;;;;13.35;1.85;;;17.90;99.90;;;;;;5073099;28;20060;-84
2022/07/06 09:03:27;;;;;;;10.00;1.63;;;17.90;99.90;;;;;;5078114;28;20553;-84
2022/07/06 09:05:58;;;;;;;6.65;1.40;;;18.00;99.90;;;;;;5079390;28;20111;-84
2022/07/06 09:08:26;;;;;;;21.35;2.80;;;18.00;99.90;;;;;;5067552;28;20042;-84
2022/07/06 09:10:52;;;;;;;20.95;2.50;;;18.10;99.90;;;;;;5089611;28;20481;-84
2022/07/06 09:13:18;;;;;;;5.32;1.10;;;18.10;99.90;;;;;;5106759;28;20040;-84
2022/07/06 09:15:43;;;;;;;6.13;1.20;;;18.10;99.90;;;;;;5089963;28;20047;-85
2022/07/06 09:18:09;;;;;;;5.05;1.00;;;18.10;99.90;;;;;;5073453;28;20040;-84
2022/07/06 09:20:36;;;;;;;8.93;1.10;;;18.20;99.90;;;;;;5107354;28;20042;-84
2022/07/06 09:23:04;;;;;;;5.30;0.95;;;18.30;99.90;;;;;;5107218;28;20051;-84
2022/07/06 09:25:31;;;;;;;8.38;1.25;;;18.40;99.90;;;;;;5107273;28;20036;-84
2022/07/06 09:27:58;;;;;;;5.00;1.10;;;18.50;99.90;;;;;;5107217;28;20036;-84
2022/07/06 09:30:26;;;;;;;3.03;0.73;;;18.50;99.90;;;;;;5106787;28;20044;-84
2022/07/06 09:32:54;;;;;;;7.05;1.17;;;18.60;99.90;;;;;;5107031;28;20047;-84
2022/07/06 09:35:27;;;;;;;14.50;1.40;;;18.70;99.90;;;;;;5107421;28;20044;-84
2022/07/06 09:38:12;;;;;;;8.00;1.02;;;18.80;99.90;;;;;;5090105;28;20097;-84
2022/07/06 09:40:40;;;;;;;5.15;0.80;;;18.90;99.90;;;;;;5077049;28;20036;-84
2022/07/06 09:43:09;;;;;;;3.53;0.70;;;18.90;99.90;;;;;;5080483;28;20040;-85
2022/07/06 09:45:36;;;;;;;4.30;0.90;;;18.90;99.90;;;;;;5102782;28;20486;-84
2022/07/06 09:48:11;;;;;;;3.47;0.90;;;19.00;99.90;;;;;;5111265;28;20040;-84
2022/07/06 09:50:41;;;;;;;5.22;1.10;;;19.10;99.90;;;;;;5110867;28;20036;-84
2022/07/06 09:53:09;;;;;;;6.05;1.00;;;19.20;99.90;;;;;;5110794;28;20063;-84
2022/07/06 09:55:34;;;;;;;4.57;0.90;;;19.20;99.90;;;;;;5110961;28;20036;-84
2022/07/06 09:58:00;;;;;;;7.53;0.90;;;19.40;99.90;;;;;;5110414;28;20072;-84
2022/07/06 10:00:25;;;;;;;6.90;1.00;;;19.50;99.90;;;;;;5075840;28;20040;-83
2022/07/06 10:02:52;;;;;;;9.90;1.15;;;19.60;99.90;;;;;;5093652;28;20047;-84
2022/07/06 10:05:21;;;;;;;59.63;4.85;;;19.80;99.90;;;;;;5093768;28;20036;-84
2022/07/06 10:07:50;;;;;;;4.60;0.90;;;19.90;99.90;;;;;;5110654;28;20071;-84
2022/07/06 10:10:16;;;;;;;5.45;0.90;;;19.70;99.40;;;;;;5122972;27;20090;-84
2022/07/06 10:12:49;;;;;;;4.20;0.90;;;19.70;96.30;;;;;;5074591;28;20082;-84
2022/07/06 10:15:15;;;;;;;;;;;19.70;95.60;;;;;;5072874;28;20072;-84
2022/07/06 10:17:41;;;;;;;4.10;0.70;;;19.80;96.70;;;;;;5075591;28;19932;-84
2022/07/06 10:20:07;;;;;;;5.88;0.80;;;19.90;94.90;;;;;;5076156;28;20043;-84
2022/07/06 10:22:34;;;;;;;2.88;0.60;;;20.10;94.20;;;;;;5092316;28;20040;-85
2022/07/06 10:25:01;;;;;;;4.53;0.75;;;20.30;92.20;;;;;;5092721;28;20036;-85
2022/07/06 10:27:28;;;;;;;6.30;0.90;;;20.40;94.50;;;;;;5093090;28;20508;-85
2022/07/06 10:29:53;;;;;;;4.10;0.65;;;20.60;97.60;;;;;;5075418;28;20084;-84
2022/07/06 10:32:20;;;;;;;5.75;0.90;;;20.70;94.00;;;;;;5075902;28;20447;-84
2022/07/06 10:34:46;;;;;;;3.65;0.65;;;20.70;90.30;;;;;;5092435;28;20437;-84
2022/07/06 10:37:26;;;;;;;6.20;0.63;;;20.40;91.30;;;;;;5075772;28;20032;-84
2022/07/06 10:42:42;;;;;;;4.70;0.70;;;20.30;90.40;;;;;;5092623;28;20044;-85
2022/07/06 10:45:10;;;;;;;3.88;0.68;;;20.20;91.60;;;;;;5092497;28;20432;-84
2022/07/06 10:47:36;;;;;;;3.85;0.80;;;20.20;90.80;;;;;;5092532;28;20128;-85
2022/07/06 10:50:05;;;;;;;4.93;0.90;;;20.20;90.00;;;;;;5091397;28;20040;-85
2022/07/06 10:52:57;;;;;;;4.55;0.63;;;20.40;91.40;;;;;;5092466;28;20539;-84
2022/07/06 10:55:35;;;;;;;4.57;0.80;;;20.30;88.30;;;;;;5075853;28;20455;-84
2022/07/06 10:58:01;;;;;;;2.10;0.63;;;20.30;87.40;;;;;;5092595;28;20047;-85
2022/07/06 11:00:51;;;;;;;4.95;0.63;;;20.40;93.00;;;;;;5092246;28;20058;-84
2022/07/06 11:03:49;;;;;;;9.30;1.10;;;20.60;92.80;;;;;;5092127;28;20141;-85
2022/07/06 11:06:19;;;;;;;4.57;1.00;;;20.70;90.80;;;;;;5093187;28;20474;-85
2022/07/06 11:08:48;;;;;;;4.20;0.77;;;20.70;79.90;;;;;;5092431;28;20070;-84
2022/07/06 11:11:31;;;;;;;4.00;0.70;;;20.50;79.20;;;;;;5091803;28;20040;-85
2022/07/06 11:14:09;;;;;;;6.03;0.98;;;20.50;89.20;;;;;;5092233;28;20097;-85
2022/07/06 11:17:00;;;;;;;5.00;0.95;;;20.60;86.30;;;;;;5091888;28;20148;-84
2022/07/06 11:19:26;;;;;;;4.95;0.95;;;20.50;84.10;;;;;;5091637;28;20036;-84
2022/07/06 11:21:53;;;;;;;3.75;0.85;;;20.50;90.10;;;;;;5091836;28;20048;-84
2022/07/06 11:24:25;;;;;;;5.35;0.85;;;20.50;92.50;;;;;;5074768;28;20122;-84
2022/07/06 11:26:52;;;;;;;7.38;1.10;;;20.60;92.10;;;;;;5091595;28;20036;-84
2022/07/06 11:29:23;;;;;;;9.77;1.20;;;20.60;90.90;;;;;;5091399;28;20350;-85
2022/07/06 11:31:52;;;;;;;11.23;1.60;;;20.80;91.70;;;;;;5065535;28;20036;-84
2022/07/06 11:34:29;;;;;;;8.77;1.40;;;20.80;92.90;;;;;;5108744;28;20040;-84
2022/07/06 11:37:00;;;;;;;4.60;1.05;;;20.80;87.70;;;;;;5109280;28;20563;-85
2022/07/06 11:39:29;;;;;;;31.20;3.13;;;20.60;90.20;;;;;;5108501;28;20371;-85
2022/07/06 11:41:56;;;;;;;5.07;0.90;;;20.50;91.20;;;;;;5091766;28;20043;-84
2022/07/06 11:44:22;;;;;;;3.97;0.77;;;20.30;83.50;;;;;;5108301;28;20520;-84
2022/07/06 11:46:48;;;;;;;3.17;0.82;;;20.20;90.60;;;;;;5108955;28;20036;-84
2022/07/06 11:49:14;;;;;;;4.65;0.80;;;20.30;91.00;;;;;;5108431;28;20553;-84
2022/07/06 11:51:41;;;;;;;10.38;1.13;;;20.40;91.30;;;;;;5105519;28;20036;-84
2022/07/06 11:54:27;;;;;;;8.27;1.10;;;20.50;90.50;;;;;;5081514;28;20401;-85
2022/07/06 11:57:01;;;;;;;5.03;0.82;;;20.50;91.60;;;;;;5067424;28;20373;-84
2022/07/06 11:59:28;;;;;;;4.78;0.80;;;20.50;87.60;;;;;;5092760;28;20035;-84
2022/07/06 12:02:06;;;;;;;7.30;1.05;;;20.50;88.00;;;;;;5090792;28;20096;-84
2022/07/06 12:04:37;;;;;;;5.05;0.90;;;20.50;87.70;;;;;;5108624;28;20109;-85
2022/07/06 12:07:08;;;;;;;3.40;0.88;;;20.50;87.60;;;;;;5108102;28;20439;-85
2022/07/06 12:09:39;;;;;;;6.40;1.50;;;20.50;92.20;;;;;;5108098;28;20039;-84
2022/07/06 12:12:06;;;;;;;3.47;1.02;;;20.60;91.30;;;;;;5108375;28;20047;-85
2022/07/06 12:14:34;;;;;;;5.63;0.93;;;20.70;86.20;;;;;;5091212;28;20043;-84
2022/07/06 12:17:11;;;;;;;3.45;0.70;;;20.70;86.30;;;;;;5103821;28;20039;-84
2022/07/06 12:19:37;;;;;;;4.82;0.98;;;20.70;90.50;;;;;;5086564;28;20512;-85
2022/07/06 12:22:04;;;;;;;4.32;0.90;;;20.70;89.50;;;;;;5087928;28;20436;-85
2022/07/06 12:24:32;;;;;;;4.43;0.80;;;20.70;92.60;;;;;;5097130;28;20040;-84
2022/07/06 12:26:58;;;;;;;3.83;0.70;;;20.60;94.50;;;;;;5074100;28;20501;-84
2022/07/06 12:29:24;;;;;;;2.45;0.75;;;20.60;95.80;;;;;;5090813;28;20066;-84
2022/07/06 12:31:52;;;;;;;6.00;1.17;;;20.50;95.70;;;;;;5091272;28;20036;-84
2022/07/06 12:34:34;;;;;;;3.88;0.90;;;20.40;96.80;;;;;;5090838;28;20044;-84
2022/07/06 12:37:06;;;;;;;4.93;0.70;;;20.40;95.00;;;;;;5074255;28;20039;-84
2022/07/06 12:39:31;;;;;;;5.18;1.00;;;20.30;92.60;;;;;;5073844;28;20131;-84
2022/07/06 12:42:04;;;;;;;4.85;0.93;;;20.30;93.80;;;;;;5090869;28;20083;-85
2022/07/06 12:44:30;;;;;;;3.92;0.80;;;20.40;93.40;;;;;;5090429;28;20123;-84
2022/07/06 12:47:06;;;;;;;4.88;1.00;;;20.30;94.10;;;;;;5090703;28;20036;-85
2022/07/06 12:49:35;;;;;;;4.18;0.90;;;20.30;93.50;;;;;;5091710;28;20036;-84
2022/07/06 12:52:06;;;;;;;5.50;1.20;;;20.20;93.30;;;;;;5090457;28;20051;-84